sensor_id;sensor_type;location;lat;lon;timestamp;P1;durP1;ratioP1;P2;durP2;ratioP2
32038;SDS011;18549;42.286;22.688;2022-07-03T00:00:38;11.25;;;5.32;;
32038;SDS011;18549;42.286;22.688;2022-07-03T00:03:03;9.48;;;6.12;;
32038;SDS011;18549;42.286;22.688;2022-07-03T00:05:29;12.10;;;5.37;;
32038;SDS011;18549;42.286;22.688;2022-07-03T00:07:55;9.23;;;5.65;;
32038;SDS011;18549;42.286;22.688;2022-07-03T00:10:22;9.68;;;4.90;;
32038;SDS011;18549;42.286;22.688;2022-07-03T00:12:47;9.02;;;4.93;;
32038;SDS011;18549;42.286;22.688;2022-07-03T00:15:13;7.12;;;4.78;;
32038;SDS011;18549;42.286;22.688;2022-07-03T00:17:39;7.68;;;5.18;;
32038;SDS011;18549;42.286;22.688;2022-07-03T00:20:05;7.18;;;5.30;;
32038;SDS011;18549;42.286;22.688;2022-07-03T00:22:32;5.90;;;4.93;;
32038;SDS011;18549;42.286;22.688;2022-07-03T00:25:05;7.55;;;4.43;;
32038;SDS011;18549;42.286;22.688;2022-07-03T00:27:33;7.50;;;4.80;;
32038;SDS011;18549;42.286;22.688;2022-07-03T00:30:00;5.30;;;4.60;;
32038;SDS011;18549;42.286;22.688;2022-07-03T00:32:28;7.53;;;4.78;;
32038;SDS011;18549;42.286;22.688;2022-07-03T00:34:54;5.68;;;5.07;;
32038;SDS011;18549;42.286;22.688;2022-07-03T00:37:22;10.57;;;5.95;;
32038;SDS011;18549;42.286;22.688;2022-07-03T00:39:48;5.10;;;4.60;;
32038;SDS011;18549;42.286;22.688;2022-07-03T00:42:15;11.05;;;5.28;;
32038;SDS011;18549;42.286;22.688;2022-07-03T00:44:51;9.30;;;5.50;;
32038;SDS011;18549;42.286;22.688;2022-07-03T00:47:19;6.28;;;4.80;;
32038;SDS011;18549;42.286;22.688;2022-07-03T00:49:48;8.38;;;5.20;;
32038;SDS011;18549;42.286;22.688;2022-07-03T00:52:15;6.28;;;4.80;;
32038;SDS011;18549;42.286;22.688;2022-07-03T00:54:44;6.47;;;5.53;;
32038;SDS011;18549;42.286;22.688;2022-07-03T00:57:16;7.25;;;5.22;;
32038;SDS011;18549;42.286;22.688;2022-07-03T00:59:44;7.72;;;5.50;;
32038;SDS011;18549;42.286;22.688;2022-07-03T01:02:23;14.93;;;5.18;;
32038;SDS011;18549;42.286;22.688;2022-07-03T01:22:14;12.50;;;5.60;;
32038;SDS011;18549;42.286;22.688;2022-07-03T01:25:14;8.70;;;5.53;;
32038;SDS011;18549;42.286;22.688;2022-07-03T01:28:12;5.90;;;4.43;;
32038;SDS011;18549;42.286;22.688;2022-07-03T01:30:50;6.95;;;5.28;;
32038;SDS011;18549;42.286;22.688;2022-07-03T01:38:21;9.75;;;5.30;;
32038;SDS011;18549;42.286;22.688;2022-07-03T01:40:47;8.02;;;5.07;;
32038;SDS011;18549;42.286;22.688;2022-07-03T01:43:14;5.25;;;4.78;;
32038;SDS011;18549;42.286;22.688;2022-07-03T01:45:44;10.05;;;4.55;;
32038;SDS011;18549;42.286;22.688;2022-07-03T01:48:12;7.72;;;4.45;;
32038;SDS011;18549;42.286;22.688;2022-07-03T01:50:39;5.75;;;5.15;;
32038;SDS011;18549;42.286;22.688;2022-07-03T01:53:07;7.15;;;4.87;;
32038;SDS011;18549;42.286;22.688;2022-07-03T01:55:34;6.97;;;4.30;;
32038;SDS011;18549;42.286;22.688;2022-07-03T01:58:03;8.23;;;4.75;;
32038;SDS011;18549;42.286;22.688;2022-07-03T02:00:28;8.18;;;5.25;;
32038;SDS011;18549;42.286;22.688;2022-07-03T02:05:29;5.72;;;4.75;;
32038;SDS011;18549;42.286;22.688;2022-07-03T02:13:23;5.62;;;4.57;;
32038;SDS011;18549;42.286;22.688;2022-07-03T02:15:50;8.05;;;5.32;;
32038;SDS011;18549;42.286;22.688;2022-07-03T02:18:29;6.03;;;4.93;;
32038;SDS011;18549;42.286;22.688;2022-07-03T02:21:14;11.27;;;5.20;;
32038;SDS011;18549;42.286;22.688;2022-07-03T02:23:57;8.98;;;5.57;;
32038;SDS011;18549;42.286;22.688;2022-07-03T02:26:30;6.20;;;5.07;;
32038;SDS011;18549;42.286;22.688;2022-07-03T02:29:01;6.62;;;5.53;;
32038;SDS011;18549;42.286;22.688;2022-07-03T02:31:31;6.00;;;5.37;;
32038;SDS011;18549;42.286;22.688;2022-07-03T02:34:07;6.45;;;5.43;;
32038;SDS011;18549;42.286;22.688;2022-07-03T02:36:43;7.53;;;5.55;;
32038;SDS011;18549;42.286;22.688;2022-07-03T02:39:14;6.93;;;5.53;;
32038;SDS011;18549;42.286;22.688;2022-07-03T02:41:49;12.37;;;5.60;;
32038;SDS011;18549;42.286;22.688;2022-07-03T02:44:21;7.40;;;5.55;;
32038;SDS011;18549;42.286;22.688;2022-07-03T02:52:28;6.37;;;4.75;;
32038;SDS011;18549;42.286;22.688;2022-07-03T02:54:57;8.23;;;5.28;;
32038;SDS011;18549;42.286;22.688;2022-07-03T02:57:30;11.93;;;5.28;;
32038;SDS011;18549;42.286;22.688;2022-07-03T03:00:04;5.82;;;4.80;;
32038;SDS011;18549;42.286;22.688;2022-07-03T03:05:13;6.55;;;5.12;;
32038;SDS011;18549;42.286;22.688;2022-07-03T03:10:40;8.95;;;5.97;;
32038;SDS011;18549;42.286;22.688;2022-07-03T03:13:08;8.32;;;4.50;;
32038;SDS011;18549;42.286;22.688;2022-07-03T03:15:37;6.55;;;4.75;;
32038;SDS011;18549;42.286;22.688;2022-07-03T03:18:07;11.88;;;6.30;;
32038;SDS011;18549;42.286;22.688;2022-07-03T03:20:37;8.50;;;5.20;;
32038;SDS011;18549;42.286;22.688;2022-07-03T03:25:50;8.40;;;5.65;;
32038;SDS011;18549;42.286;22.688;2022-07-03T03:28:18;14.05;;;5.50;;
32038;SDS011;18549;42.286;22.688;2022-07-03T03:30:44;8.32;;;5.82;;
32038;SDS011;18549;42.286;22.688;2022-07-03T03:33:10;10.75;;;6.15;;
32038;SDS011;18549;42.286;22.688;2022-07-03T03:35:37;8.45;;;6.50;;
32038;SDS011;18549;42.286;22.688;2022-07-03T03:38:04;10.45;;;5.37;;
32038;SDS011;18549;42.286;22.688;2022-07-03T03:40:33;7.57;;;5.68;;
32038;SDS011;18549;42.286;22.688;2022-07-03T03:43:01;5.50;;;4.70;;
32038;SDS011;18549;42.286;22.688;2022-07-03T03:45:29;10.43;;;6.93;;
32038;SDS011;18549;42.286;22.688;2022-07-03T03:48:03;11.98;;;6.07;;
32038;SDS011;18549;42.286;22.688;2022-07-03T03:50:29;8.95;;;5.82;;
32038;SDS011;18549;42.286;22.688;2022-07-03T03:52:55;7.53;;;6.25;;
32038;SDS011;18549;42.286;22.688;2022-07-03T03:55:20;8.40;;;5.85;;
32038;SDS011;18549;42.286;22.688;2022-07-03T03:57:46;14.95;;;6.07;;
32038;SDS011;18549;42.286;22.688;2022-07-03T04:00:12;10.02;;;6.60;;
32038;SDS011;18549;42.286;22.688;2022-07-03T04:02:39;10.90;;;6.20;;
32038;SDS011;18549;42.286;22.688;2022-07-03T04:05:05;12.23;;;6.72;;
32038;SDS011;18549;42.286;22.688;2022-07-03T04:07:31;12.35;;;5.62;;
32038;SDS011;18549;42.286;22.688;2022-07-03T04:09:57;8.93;;;5.65;;
32038;SDS011;18549;42.286;22.688;2022-07-03T04:12:23;10.77;;;6.53;;
32038;SDS011;18549;42.286;22.688;2022-07-03T04:14:49;9.52;;;6.47;;
32038;SDS011;18549;42.286;22.688;2022-07-03T04:17:16;8.10;;;6.15;;
32038;SDS011;18549;42.286;22.688;2022-07-03T04:19:42;14.32;;;6.15;;
32038;SDS011;18549;42.286;22.688;2022-07-03T04:22:08;7.43;;;6.62;;
32038;SDS011;18549;42.286;22.688;2022-07-03T04:24:37;10.05;;;6.20;;
32038;SDS011;18549;42.286;22.688;2022-07-03T04:27:03;8.45;;;6.12;;
32038;SDS011;18549;42.286;22.688;2022-07-03T04:29:29;9.98;;;6.00;;
32038;SDS011;18549;42.286;22.688;2022-07-03T04:31:55;7.60;;;5.85;;
32038;SDS011;18549;42.286;22.688;2022-07-03T04:34:22;11.75;;;6.62;;
32038;SDS011;18549;42.286;22.688;2022-07-03T04:36:47;7.53;;;6.07;;
32038;SDS011;18549;42.286;22.688;2022-07-03T04:39:14;9.32;;;5.62;;
32038;SDS011;18549;42.286;22.688;2022-07-03T04:41:39;11.73;;;6.20;;
32038;SDS011;18549;42.286;22.688;2022-07-03T04:44:05;8.25;;;6.55;;
32038;SDS011;18549;42.286;22.688;2022-07-03T04:46:32;10.52;;;7.05;;
32038;SDS011;18549;42.286;22.688;2022-07-03T04:48:58;9.68;;;6.47;;
32038;SDS011;18549;42.286;22.688;2022-07-03T04:51:25;14.18;;;7.53;;
32038;SDS011;18549;42.286;22.688;2022-07-03T04:53:51;13.48;;;6.82;;
32038;SDS011;18549;42.286;22.688;2022-07-03T04:56:16;15.45;;;7.35;;
32038;SDS011;18549;42.286;22.688;2022-07-03T04:58:42;9.10;;;7.05;;
32038;SDS011;18549;42.286;22.688;2022-07-03T05:01:08;10.65;;;7.25;;
32038;SDS011;18549;42.286;22.688;2022-07-03T05:03:34;9.43;;;7.40;;
32038;SDS011;18549;42.286;22.688;2022-07-03T05:05:59;7.82;;;6.90;;
32038;SDS011;18549;42.286;22.688;2022-07-03T05:08:26;13.77;;;6.62;;
32038;SDS011;18549;42.286;22.688;2022-07-03T05:10:52;9.85;;;7.12;;
32038;SDS011;18549;42.286;22.688;2022-07-03T05:13:18;11.90;;;6.80;;
32038;SDS011;18549;42.286;22.688;2022-07-03T05:15:44;8.98;;;6.68;;
32038;SDS011;18549;42.286;22.688;2022-07-03T05:18:10;8.60;;;6.80;;
32038;SDS011;18549;42.286;22.688;2022-07-03T05:20:36;11.77;;;6.55;;
32038;SDS011;18549;42.286;22.688;2022-07-03T05:23:03;10.65;;;7.30;;
32038;SDS011;18549;42.286;22.688;2022-07-03T05:25:30;9.20;;;6.90;;
32038;SDS011;18549;42.286;22.688;2022-07-03T05:27:57;14.15;;;7.68;;
32038;SDS011;18549;42.286;22.688;2022-07-03T05:30:24;13.45;;;7.60;;
32038;SDS011;18549;42.286;22.688;2022-07-03T05:32:51;7.90;;;6.80;;
32038;SDS011;18549;42.286;22.688;2022-07-03T05:35:17;14.07;;;8.18;;
32038;SDS011;18549;42.286;22.688;2022-07-03T05:37:46;9.25;;;7.32;;
32038;SDS011;18549;42.286;22.688;2022-07-03T05:40:14;9.27;;;6.75;;
32038;SDS011;18549;42.286;22.688;2022-07-03T05:42:40;11.38;;;6.43;;
32038;SDS011;18549;42.286;22.688;2022-07-03T05:45:06;10.77;;;6.45;;
32038;SDS011;18549;42.286;22.688;2022-07-03T05:47:33;8.45;;;6.70;;
32038;SDS011;18549;42.286;22.688;2022-07-03T05:49:59;18.10;;;7.25;;
32038;SDS011;18549;42.286;22.688;2022-07-03T05:52:25;10.90;;;7.20;;
32038;SDS011;18549;42.286;22.688;2022-07-03T05:54:51;11.50;;;7.60;;
32038;SDS011;18549;42.286;22.688;2022-07-03T05:57:17;11.68;;;6.62;;
32038;SDS011;18549;42.286;22.688;2022-07-03T05:59:43;10.43;;;7.07;;
32038;SDS011;18549;42.286;22.688;2022-07-03T06:02:08;12.27;;;7.20;;
32038;SDS011;18549;42.286;22.688;2022-07-03T06:04:36;10.20;;;7.50;;
32038;SDS011;18549;42.286;22.688;2022-07-03T06:07:01;7.60;;;6.65;;
32038;SDS011;18549;42.286;22.688;2022-07-03T06:09:27;11.82;;;6.80;;
32038;SDS011;18549;42.286;22.688;2022-07-03T06:11:53;10.07;;;7.70;;
32038;SDS011;18549;42.286;22.688;2022-07-03T06:14:19;9.07;;;6.68;;
32038;SDS011;18549;42.286;22.688;2022-07-03T06:16:44;8.10;;;6.80;;
32038;SDS011;18549;42.286;22.688;2022-07-03T06:19:10;8.13;;;6.57;;
32038;SDS011;18549;42.286;22.688;2022-07-03T06:21:36;11.20;;;7.90;;
32038;SDS011;18549;42.286;22.688;2022-07-03T06:24:02;10.40;;;7.18;;
32038;SDS011;18549;42.286;22.688;2022-07-03T06:26:27;11.73;;;6.80;;
32038;SDS011;18549;42.286;22.688;2022-07-03T06:28:56;12.55;;;7.47;;
32038;SDS011;18549;42.286;22.688;2022-07-03T06:31:21;10.93;;;7.10;;
32038;SDS011;18549;42.286;22.688;2022-07-03T06:33:47;11.73;;;6.90;;
32038;SDS011;18549;42.286;22.688;2022-07-03T06:36:13;10.93;;;7.25;;
32038;SDS011;18549;42.286;22.688;2022-07-03T06:38:38;11.38;;;7.20;;
32038;SDS011;18549;42.286;22.688;2022-07-03T06:41:04;12.57;;;7.45;;
32038;SDS011;18549;42.286;22.688;2022-07-03T06:43:30;15.57;;;8.18;;
32038;SDS011;18549;42.286;22.688;2022-07-03T06:45:55;9.48;;;7.70;;
32038;SDS011;18549;42.286;22.688;2022-07-03T06:48:21;13.02;;;7.05;;
32038;SDS011;18549;42.286;22.688;2022-07-03T06:50:47;14.23;;;7.93;;
32038;SDS011;18549;42.286;22.688;2022-07-03T06:53:13;12.30;;;8.73;;
32038;SDS011;18549;42.286;22.688;2022-07-03T06:55:39;12.00;;;7.65;;
32038;SDS011;18549;42.286;22.688;2022-07-03T06:58:05;9.35;;;7.43;;
32038;SDS011;18549;42.286;22.688;2022-07-03T07:00:31;12.37;;;7.82;;
32038;SDS011;18549;42.286;22.688;2022-07-03T07:02:57;15.65;;;7.87;;
32038;SDS011;18549;42.286;22.688;2022-07-03T07:05:23;11.93;;;7.12;;
32038;SDS011;18549;42.286;22.688;2022-07-03T07:07:49;12.30;;;7.82;;
32038;SDS011;18549;42.286;22.688;2022-07-03T07:10:15;7.93;;;6.53;;
32038;SDS011;18549;42.286;22.688;2022-07-03T07:12:40;8.85;;;7.70;;
32038;SDS011;18549;42.286;22.688;2022-07-03T07:15:07;11.07;;;7.82;;
32038;SDS011;18549;42.286;22.688;2022-07-03T07:17:33;13.30;;;8.38;;
32038;SDS011;18549;42.286;22.688;2022-07-03T07:19:58;10.93;;;7.93;;
32038;SDS011;18549;42.286;22.688;2022-07-03T07:22:24;19.80;;;8.48;;
32038;SDS011;18549;42.286;22.688;2022-07-03T07:24:50;21.75;;;8.82;;
32038;SDS011;18549;42.286;22.688;2022-07-03T07:27:17;10.93;;;8.70;;
32038;SDS011;18549;42.286;22.688;2022-07-03T07:29:42;10.07;;;7.53;;
32038;SDS011;18549;42.286;22.688;2022-07-03T07:32:08;10.18;;;7.43;;
32038;SDS011;18549;42.286;22.688;2022-07-03T07:34:34;8.13;;;7.00;;
32038;SDS011;18549;42.286;22.688;2022-07-03T07:36:59;7.72;;;7.03;;
32038;SDS011;18549;42.286;22.688;2022-07-03T07:39:25;7.68;;;6.78;;
32038;SDS011;18549;42.286;22.688;2022-07-03T07:41:51;7.10;;;6.43;;
32038;SDS011;18549;42.286;22.688;2022-07-03T07:44:16;8.85;;;6.87;;
32038;SDS011;18549;42.286;22.688;2022-07-03T07:46:42;20.48;;;8.30;;
32038;SDS011;18549;42.286;22.688;2022-07-03T07:49:08;13.40;;;8.95;;
32038;SDS011;18549;42.286;22.688;2022-07-03T07:51:34;12.40;;;7.30;;
32038;SDS011;18549;42.286;22.688;2022-07-03T07:53:59;11.60;;;7.47;;
32038;SDS011;18549;42.286;22.688;2022-07-03T07:56:26;8.63;;;7.70;;
32038;SDS011;18549;42.286;22.688;2022-07-03T07:58:52;9.00;;;8.05;;
32038;SDS011;18549;42.286;22.688;2022-07-03T08:01:18;12.70;;;7.95;;
32038;SDS011;18549;42.286;22.688;2022-07-03T08:04:03;10.80;;;7.75;;
32038;SDS011;18549;42.286;22.688;2022-07-03T08:06:48;11.90;;;7.95;;
32038;SDS011;18549;42.286;22.688;2022-07-03T08:09:14;8.40;;;6.60;;
32038;SDS011;18549;42.286;22.688;2022-07-03T08:11:39;12.50;;;7.90;;
32038;SDS011;18549;42.286;22.688;2022-07-03T08:14:05;9.05;;;7.47;;
32038;SDS011;18549;42.286;22.688;2022-07-03T08:16:34;9.90;;;7.03;;
32038;SDS011;18549;42.286;22.688;2022-07-03T08:19:00;10.65;;;6.87;;
32038;SDS011;18549;42.286;22.688;2022-07-03T08:21:26;12.00;;;6.85;;
32038;SDS011;18549;42.286;22.688;2022-07-03T08:23:52;11.50;;;7.82;;
32038;SDS011;18549;42.286;22.688;2022-07-03T08:26:18;12.23;;;7.57;;
32038;SDS011;18549;42.286;22.688;2022-07-03T08:28:44;7.68;;;6.85;;
32038;SDS011;18549;42.286;22.688;2022-07-03T08:31:11;11.50;;;7.87;;
32038;SDS011;18549;42.286;22.688;2022-07-03T08:33:37;12.18;;;8.32;;
32038;SDS011;18549;42.286;22.688;2022-07-03T08:36:04;10.10;;;7.15;;
32038;SDS011;18549;42.286;22.688;2022-07-03T08:38:31;12.55;;;7.55;;
32038;SDS011;18549;42.286;22.688;2022-07-03T08:41:02;13.60;;;8.00;;
32038;SDS011;18549;42.286;22.688;2022-07-03T08:43:29;9.00;;;7.62;;
32038;SDS011;18549;42.286;22.688;2022-07-03T08:45:56;9.75;;;7.75;;
32038;SDS011;18549;42.286;22.688;2022-07-03T08:48:24;13.50;;;7.43;;
32038;SDS011;18549;42.286;22.688;2022-07-03T08:50:51;8.27;;;7.10;;
32038;SDS011;18549;42.286;22.688;2022-07-03T08:53:18;12.70;;;7.55;;
32038;SDS011;18549;42.286;22.688;2022-07-03T08:55:45;13.77;;;7.45;;
32038;SDS011;18549;42.286;22.688;2022-07-03T08:58:13;12.18;;;7.07;;
32038;SDS011;18549;42.286;22.688;2022-07-03T09:00:44;10.77;;;8.18;;
32038;SDS011;18549;42.286;22.688;2022-07-03T09:03:10;12.25;;;6.93;;
32038;SDS011;18549;42.286;22.688;2022-07-03T09:05:38;12.82;;;7.32;;
32038;SDS011;18549;42.286;22.688;2022-07-03T09:08:08;10.80;;;7.22;;
32038;SDS011;18549;42.286;22.688;2022-07-03T09:10:35;7.85;;;6.37;;
32038;SDS011;18549;42.286;22.688;2022-07-03T09:13:02;13.48;;;7.68;;
32038;SDS011;18549;42.286;22.688;2022-07-03T09:15:28;9.93;;;7.65;;
32038;SDS011;18549;42.286;22.688;2022-07-03T09:17:58;11.57;;;6.87;;
32038;SDS011;18549;42.286;22.688;2022-07-03T09:20:32;11.57;;;7.18;;
32038;SDS011;18549;42.286;22.688;2022-07-03T09:23:12;11.60;;;7.57;;
32038;SDS011;18549;42.286;22.688;2022-07-03T09:25:51;8.50;;;6.97;;
32038;SDS011;18549;42.286;22.688;2022-07-03T09:28:24;7.25;;;6.12;;
32038;SDS011;18549;42.286;22.688;2022-07-03T09:31:19;10.25;;;6.78;;
32038;SDS011;18549;42.286;22.688;2022-07-03T09:33:54;11.98;;;6.68;;
32038;SDS011;18549;42.286;22.688;2022-07-03T09:39:30;7.57;;;5.80;;
32038;SDS011;18549;42.286;22.688;2022-07-03T09:42:03;7.53;;;6.15;;
32038;SDS011;18549;42.286;22.688;2022-07-03T09:47:21;6.72;;;5.97;;
32038;SDS011;18549;42.286;22.688;2022-07-03T09:49:55;13.70;;;6.07;;
32038;SDS011;18549;42.286;22.688;2022-07-03T09:52:26;10.52;;;6.12;;
32038;SDS011;18549;42.286;22.688;2022-07-03T09:57:39;17.98;;;5.20;;
32038;SDS011;18549;42.286;22.688;2022-07-03T10:05:23;12.43;;;4.45;;
32038;SDS011;18549;42.286;22.688;2022-07-03T10:07:58;6.10;;;4.53;;
32038;SDS011;18549;42.286;22.688;2022-07-03T10:10:26;9.55;;;5.37;;
32038;SDS011;18549;42.286;22.688;2022-07-03T10:12:55;8.13;;;5.30;;
32038;SDS011;18549;42.286;22.688;2022-07-03T10:15:23;8.95;;;4.87;;
32038;SDS011;18549;42.286;22.688;2022-07-03T10:17:51;9.40;;;6.07;;
32038;SDS011;18549;42.286;22.688;2022-07-03T10:21:05;10.45;;;4.37;;
32038;SDS011;18549;42.286;22.688;2022-07-03T10:23:14;8.20;;;5.57;;
32038;SDS011;18549;42.286;22.688;2022-07-03T10:25:42;8.57;;;5.32;;
32038;SDS011;18549;42.286;22.688;2022-07-03T10:28:12;9.68;;;5.32;;
32038;SDS011;18549;42.286;22.688;2022-07-03T10:30:38;8.55;;;5.35;;
32038;SDS011;18549;42.286;22.688;2022-07-03T10:33:07;11.75;;;6.32;;
32038;SDS011;18549;42.286;22.688;2022-07-03T10:35:36;10.80;;;6.80;;
32038;SDS011;18549;42.286;22.688;2022-07-03T10:44:04;10.98;;;5.30;;
32038;SDS011;18549;42.286;22.688;2022-07-03T10:46:50;10.70;;;5.97;;
32038;SDS011;18549;42.286;22.688;2022-07-03T10:49:15;7.65;;;6.55;;
32038;SDS011;18549;42.286;22.688;2022-07-03T10:54:14;6.62;;;5.10;;
32038;SDS011;18549;42.286;22.688;2022-07-03T11:07:23;10.30;;;5.70;;
32038;SDS011;18549;42.286;22.688;2022-07-03T11:18:40;9.80;;;5.75;;
32038;SDS011;18549;42.286;22.688;2022-07-03T11:23:23;10.65;;;5.60;;
32038;SDS011;18549;42.286;22.688;2022-07-03T11:33:48;8.85;;;4.95;;
32038;SDS011;18549;42.286;22.688;2022-07-03T11:41:15;5.80;;;5.20;;
32038;SDS011;18549;42.286;22.688;2022-07-03T11:44:01;5.95;;;5.32;;
32038;SDS011;18549;42.286;22.688;2022-07-03T11:46:29;13.65;;;6.22;;
32038;SDS011;18549;42.286;22.688;2022-07-03T11:49:06;13.57;;;6.35;;
32038;SDS011;18549;42.286;22.688;2022-07-03T11:51:32;6.07;;;5.18;;
32038;SDS011;18549;42.286;22.688;2022-07-03T11:53:58;6.20;;;5.05;;
32038;SDS011;18549;42.286;22.688;2022-07-03T11:56:24;5.90;;;5.30;;
32038;SDS011;18549;42.286;22.688;2022-07-03T11:58:50;5.93;;;5.32;;
32038;SDS011;18549;42.286;22.688;2022-07-03T12:03:50;9.30;;;5.45;;
32038;SDS011;18549;42.286;22.688;2022-07-03T12:06:27;5.80;;;4.87;;
32038;SDS011;18549;42.286;22.688;2022-07-03T12:08:59;8.68;;;5.57;;
32038;SDS011;18549;42.286;22.688;2022-07-03T12:11:24;6.87;;;5.43;;
32038;SDS011;18549;42.286;22.688;2022-07-03T12:13:50;11.68;;;5.37;;
32038;SDS011;18549;42.286;22.688;2022-07-03T12:16:18;6.20;;;5.60;;
32038;SDS011;18549;42.286;22.688;2022-07-03T12:18:53;8.13;;;5.15;;
32038;SDS011;18549;42.286;22.688;2022-07-03T12:21:21;8.88;;;5.90;;
32038;SDS011;18549;42.286;22.688;2022-07-03T12:23:51;5.43;;;4.82;;
32038;SDS011;18549;42.286;22.688;2022-07-03T12:26:28;6.80;;;5.43;;
32038;SDS011;18549;42.286;22.688;2022-07-03T12:28:59;8.88;;;5.68;;
32038;SDS011;18549;42.286;22.688;2022-07-03T12:31:26;9.23;;;5.55;;
32038;SDS011;18549;42.286;22.688;2022-07-03T12:37:15;8.48;;;5.75;;
32038;SDS011;18549;42.286;22.688;2022-07-03T12:39:41;7.12;;;5.55;;
32038;SDS011;18549;42.286;22.688;2022-07-03T12:42:20;8.80;;;5.03;;
32038;SDS011;18549;42.286;22.688;2022-07-03T12:45:02;7.87;;;5.82;;
32038;SDS011;18549;42.286;22.688;2022-07-03T12:47:30;11.88;;;5.35;;
32038;SDS011;18549;42.286;22.688;2022-07-03T12:50:00;11.48;;;5.45;;
32038;SDS011;18549;42.286;22.688;2022-07-03T12:52:28;12.75;;;5.25;;
32038;SDS011;18549;42.286;22.688;2022-07-03T12:54:55;6.28;;;5.65;;
32038;SDS011;18549;42.286;22.688;2022-07-03T12:57:21;16.12;;;6.03;;
32038;SDS011;18549;42.286;22.688;2022-07-03T13:02:38;5.95;;;5.35;;
32038;SDS011;18549;42.286;22.688;2022-07-03T13:05:22;5.55;;;5.05;;
32038;SDS011;18549;42.286;22.688;2022-07-03T13:07:50;6.55;;;5.60;;
32038;SDS011;18549;42.286;22.688;2022-07-03T13:10:18;10.70;;;5.00;;
32038;SDS011;18549;42.286;22.688;2022-07-03T13:12:53;13.07;;;5.53;;
32038;SDS011;18549;42.286;22.688;2022-07-03T13:15:26;6.43;;;4.93;;
32038;SDS011;18549;42.286;22.688;2022-07-03T13:20:31;6.87;;;5.47;;
32038;SDS011;18549;42.286;22.688;2022-07-03T13:22:59;5.65;;;5.10;;
32038;SDS011;18549;42.286;22.688;2022-07-03T13:25:26;13.68;;;6.07;;
32038;SDS011;18549;42.286;22.688;2022-07-03T13:27:52;10.48;;;6.00;;
32038;SDS011;18549;42.286;22.688;2022-07-03T13:30:35;9.65;;;6.18;;
32038;SDS011;18549;42.286;22.688;2022-07-03T13:33:02;9.85;;;5.25;;
32038;SDS011;18549;42.286;22.688;2022-07-03T13:35:28;10.52;;;4.78;;
32038;SDS011;18549;42.286;22.688;2022-07-03T13:37:54;5.82;;;4.68;;
32038;SDS011;18549;42.286;22.688;2022-07-03T13:40:20;8.55;;;4.68;;
32038;SDS011;18549;42.286;22.688;2022-07-03T13:42:46;11.40;;;4.62;;
32038;SDS011;18549;42.286;22.688;2022-07-03T13:45:12;5.78;;;4.97;;
32038;SDS011;18549;42.286;22.688;2022-07-03T13:47:39;6.90;;;4.55;;
32038;SDS011;18549;42.286;22.688;2022-07-03T13:50:05;9.18;;;4.57;;
32038;SDS011;18549;42.286;22.688;2022-07-03T13:52:31;9.30;;;6.75;;
32038;SDS011;18549;42.286;22.688;2022-07-03T13:54:57;9.77;;;5.93;;
32038;SDS011;18549;42.286;22.688;2022-07-03T13:57:23;10.13;;;7.40;;
32038;SDS011;18549;42.286;22.688;2022-07-03T13:59:49;8.55;;;7.30;;
32038;SDS011;18549;42.286;22.688;2022-07-03T14:02:14;14.85;;;7.80;;
32038;SDS011;18549;42.286;22.688;2022-07-03T14:04:40;7.60;;;6.35;;
32038;SDS011;18549;42.286;22.688;2022-07-03T14:07:06;15.38;;;8.10;;
32038;SDS011;18549;42.286;22.688;2022-07-03T14:09:32;9.27;;;6.50;;
32038;SDS011;18549;42.286;22.688;2022-07-03T14:11:58;7.53;;;6.60;;
32038;SDS011;18549;42.286;22.688;2022-07-03T14:14:24;7.93;;;7.18;;
32038;SDS011;18549;42.286;22.688;2022-07-03T14:16:50;13.60;;;8.65;;
32038;SDS011;18549;42.286;22.688;2022-07-03T14:19:16;8.30;;;7.18;;
32038;SDS011;18549;42.286;22.688;2022-07-03T14:21:42;10.48;;;7.60;;
32038;SDS011;18549;42.286;22.688;2022-07-03T14:24:09;9.07;;;6.62;;
32038;SDS011;18549;42.286;22.688;2022-07-03T14:26:35;10.73;;;6.32;;
32038;SDS011;18549;42.286;22.688;2022-07-03T14:29:19;8.07;;;6.35;;
32038;SDS011;18549;42.286;22.688;2022-07-03T14:32:04;6.85;;;6.20;;
32038;SDS011;18549;42.286;22.688;2022-07-03T14:34:43;7.30;;;6.57;;
32038;SDS011;18549;42.286;22.688;2022-07-03T14:37:22;11.05;;;7.07;;
32038;SDS011;18549;42.286;22.688;2022-07-03T14:40:01;11.88;;;6.40;;
32038;SDS011;18549;42.286;22.688;2022-07-03T14:42:40;8.55;;;7.05;;
32038;SDS011;18549;42.286;22.688;2022-07-03T14:45:19;13.65;;;7.47;;
32038;SDS011;18549;42.286;22.688;2022-07-03T14:47:58;13.57;;;7.60;;
32038;SDS011;18549;42.286;22.688;2022-07-03T14:50:37;9.10;;;6.78;;
32038;SDS011;18549;42.286;22.688;2022-07-03T14:53:16;9.52;;;7.95;;
32038;SDS011;18549;42.286;22.688;2022-07-03T14:55:55;8.57;;;6.50;;
32038;SDS011;18549;42.286;22.688;2022-07-03T14:58:34;8.27;;;6.95;;
32038;SDS011;18549;42.286;22.688;2022-07-03T15:01:17;10.02;;;7.25;;
32038;SDS011;18549;42.286;22.688;2022-07-03T15:04:00;12.15;;;7.15;;
32038;SDS011;18549;42.286;22.688;2022-07-03T15:06:40;12.35;;;7.30;;
32038;SDS011;18549;42.286;22.688;2022-07-03T15:09:24;12.88;;;7.25;;
32038;SDS011;18549;42.286;22.688;2022-07-03T15:12:10;10.63;;;8.02;;
32038;SDS011;18549;42.286;22.688;2022-07-03T15:14:49;16.70;;;7.65;;
32038;SDS011;18549;42.286;22.688;2022-07-03T15:17:30;15.55;;;8.05;;
32038;SDS011;18549;42.286;22.688;2022-07-03T15:20:12;10.52;;;7.20;;
32038;SDS011;18549;42.286;22.688;2022-07-03T15:22:52;7.37;;;5.93;;
32038;SDS011;18549;42.286;22.688;2022-07-03T15:25:33;8.45;;;5.43;;
32038;SDS011;18549;42.286;22.688;2022-07-03T15:28:15;9.02;;;5.60;;
32038;SDS011;18549;42.286;22.688;2022-07-03T15:30:55;9.20;;;5.90;;
32038;SDS011;18549;42.286;22.688;2022-07-03T15:33:34;7.20;;;5.50;;
32038;SDS011;18549;42.286;22.688;2022-07-03T15:36:13;6.47;;;4.85;;
32038;SDS011;18549;42.286;22.688;2022-07-03T15:39:03;5.30;;;4.80;;
32038;SDS011;18549;42.286;22.688;2022-07-03T15:41:47;6.37;;;5.22;;
32038;SDS011;18549;42.286;22.688;2022-07-03T15:47:46;6.93;;;4.82;;
32038;SDS011;18549;42.286;22.688;2022-07-03T15:54:02;4.75;;;4.03;;
32038;SDS011;18549;42.286;22.688;2022-07-03T15:56:42;6.50;;;4.75;;
32038;SDS011;18549;42.286;22.688;2022-07-03T15:59:22;6.45;;;5.07;;
32038;SDS011;18549;42.286;22.688;2022-07-03T16:02:05;6.82;;;4.57;;
32038;SDS011;18549;42.286;22.688;2022-07-03T16:04:58;7.60;;;4.87;;
32038;SDS011;18549;42.286;22.688;2022-07-03T16:07:46;9.85;;;4.75;;
32038;SDS011;18549;42.286;22.688;2022-07-03T16:10:26;9.73;;;5.55;;
32038;SDS011;18549;42.286;22.688;2022-07-03T16:13:05;6.18;;;4.57;;
